OMDBVNKT

Guest
Details From OMDB - Dubai Intl
To VNKT - Kathmandu Tribhuvan Intl
Flight Number -
Tags Generated
Created
Modified
Stats Distance 1,616 nm / 2,993 km
Max Altitude 0 ft / 0 m
Waypoints 6
Social Downloads 4
Likes 0
Share VATSIM

Download

Looking for another format? Having issues loading an existing format? Contact us
Advertisement - Login to hide

Notes

Generated

Route

OMDB PG MJ REBON KTM56 VNKT

ID Type Via Altitude Latitude Longitude Leg Dist Tot Dist Heading (true) Name
O OMDB APT - 0 ft / 0 m 25.26213˚ 55.34757˚ - 0 nm - -
PG NDB - 0 ft / 0 m 26.95618˚ 64.13831˚ 484 nm 484 nm 76° / 80° PANJGUR NDB
MJ NDB - 0 ft / 0 m 27.33097˚ 68.14105˚ 215 nm 699 nm 83° / 85° MOENJODARO NDB
REBON FIX - 0 ft / 0 m 27.80019˚ 76.52239˚ 447 nm 1146 nm 84° / 88° -
KTM56 FIX - 0 ft / 0 m 27.68390˚ 85.35196˚ 469 nm 1616 nm 89° / 93° -
O VNKT APT - 0 ft / 0 m 27.68381˚ 85.35342˚ 0 nm 1616 nm 94° / 94° -

Altitude Profile

Advertisement - Login to hide

Weather


0- 5 10 15 20 25 30 35+ Temperature / ° C

Clouds and Precipitation
Forecast for 2017-12-16 06:00 UTC. Updated 2 hours ago

Ground ~20,000 ft ~40,000 ft Winds

OMDB

Details ICAO OMDB (DXB)
Name DUBAI INTL
Region United Arab Emirates
Timezone Asia/Dubai (UTC+4.0)
Stats Elevation 62 ft / 19 m (AMSL)
Location 25.254912° 55.364260°
Runways 2
Magnetic Variation 2.047° E

METAR

OMDB 160700Z 11008KT 080V150 CAVOK 25/12 Q1021 NOSIG

Decode

TAF

TAF OMDB 160501Z 1606/1712 15008KT 8000 NSC BECMG 1609/1611 02014KT PROB30 TEMPO 1609/1618 VRB20G35KT 1500 TSRA BLDU SCT040CB BECMG 1616/1618 09007KT PROB30 TEMPO 1706/1712 VRB20G30KT 3000 SHRA BLDU FEW040TCU BECMG 1710/1712 01010KT

Decode

Departure Runways

ID Width Length Bearing (true) Bearing (mag) Surface Threshold Offset Overrun Length
12L 197 ft / 60 m 13,124 ft / 4,000 m 121.49° 119.44° Asphalt 1,312 ft / 400 m 395 ft / 120 m
12R 151 ft / 46 m 13,139 ft / 4,005 m 121.48° 119.43° Asphalt 394 ft / 120 m 197 ft / 60 m
30L 151 ft / 46 m 13,139 ft / 4,005 m 301.50° 299.45° Asphalt 2,953 ft / 900 m 197 ft / 60 m
30R 197 ft / 60 m 13,124 ft / 4,000 m 301.51° 299.46° Asphalt 0 ft / 0 m 395 ft / 120 m

VNKT

Details ICAO VNKT (KTM)
Name Kathmandu Tribhuvan Intl
Region Nepal
Timezone Asia/Kathmandu (UTC+5.8)
Stats Elevation 4,390 ft / 1,338 m (AMSL)
Location 27.696583° 85.359100°
Runways 1
Magnetic Variation 0.492° E

METAR

VNKT 160720Z 25003KT 6000 FEW015 BKN250 19/01 Q1021 NOSIG

Decode

TAF

TAF VNKT 160500Z 1606/1706 13005KT 5000 HZ FEW010 BKN250 BECMG 1607/1608 28008KT 8000 FEW020 BKN250 BECMG 1614/1615 VRB02KT 6000 FEW015 BECMG 1700/1702 VRB02KT 4000 BR FEW015 PROB30 1701/1703 2000 BR FEW010 BECMG 1704/1705 13003KT 5000 HZ FEW015

Decode

Destination Runways

ID Width Length Bearing (true) Bearing (mag) Surface Threshold Offset Overrun Length
02 148 ft / 45 m 10,017 ft / 3,053 m 21.50° 21.01° Asphalt 0 ft / 0 m 0 ft / 0 m
20 148 ft / 45 m 10,017 ft / 3,053 m 201.51° 201.02° Asphalt 400 ft / 122 m 0 ft / 0 m

Popular Alternatives